createdAt,value
2019-02-15T00:01:37.547Z,99.90
2019-02-15T00:04:03.753Z,99.90
2019-02-15T00:06:30.124Z,99.90
2019-02-15T00:08:56.237Z,99.90
2019-02-15T00:11:22.353Z,99.90
2019-02-15T00:13:48.457Z,99.90
2019-02-15T00:16:14.626Z,99.90
2019-02-15T00:18:48.671Z,99.90
2019-02-15T00:21:16.746Z,99.90
2019-02-15T00:23:42.861Z,99.90
2019-02-15T00:26:08.987Z,99.90
2019-02-15T00:28:35.159Z,99.90
2019-02-15T00:31:01.293Z,99.90
2019-02-15T00:33:27.537Z,99.90
2019-02-15T00:35:53.707Z,99.90
2019-02-15T00:38:19.814Z,99.90
2019-02-15T00:40:45.926Z,99.90
2019-02-15T00:43:12.290Z,99.90
2019-02-15T00:45:52.671Z,99.90
2019-02-15T00:48:20.741Z,99.90
2019-02-15T00:50:48.760Z,99.90
2019-02-15T00:53:33.291Z,99.90
2019-02-15T00:56:01.301Z,99.90
2019-02-15T00:58:35.487Z,99.90
2019-02-15T01:01:18.726Z,99.90
2019-02-15T01:03:46.769Z,99.90
2019-02-15T01:06:23.489Z,99.90
2019-02-15T01:08:54.511Z,99.90
2019-02-15T01:11:28.704Z,99.90
2019-02-15T01:13:54.814Z,99.90
2019-02-15T01:16:20.899Z,99.90
2019-02-15T01:18:47.049Z,99.90
2019-02-15T01:21:13.250Z,99.90
2019-02-15T01:23:39.318Z,99.90
2019-02-15T01:26:10.107Z,99.90
2019-02-15T01:28:38.087Z,99.90
2019-02-15T01:31:06.135Z,99.90
2019-02-15T01:33:39.950Z,99.90
2019-02-15T01:36:14.002Z,99.90
2019-02-15T01:38:44.896Z,99.90
2019-02-15T01:41:12.912Z,99.90
2019-02-15T01:43:49.978Z,99.90
2019-02-15T01:46:18.028Z,99.90
2019-02-15T01:48:44.090Z,99.90
2019-02-15T01:51:10.239Z,99.90
2019-02-15T01:53:36.378Z,99.90
2019-02-15T01:56:02.538Z,99.90
2019-02-15T01:58:28.606Z,99.90
2019-02-15T02:00:54.718Z,99.90
2019-02-15T02:03:20.796Z,99.90
2019-02-15T02:05:46.904Z,99.90
2019-02-15T02:08:15.129Z,99.90
2019-02-15T02:10:41.254Z,99.90
2019-02-15T02:13:07.600Z,99.90
2019-02-15T02:15:33.816Z,99.90
2019-02-15T02:18:00.074Z,99.90
2019-02-15T02:20:26.279Z,99.90
2019-02-15T02:22:52.358Z,99.90
2019-02-15T02:25:18.461Z,99.90
2019-02-15T02:27:44.670Z,99.90
2019-02-15T02:30:11.052Z,99.90
2019-02-15T02:32:37.148Z,99.90
2019-02-15T02:35:05.585Z,99.90
2019-02-15T02:37:31.672Z,99.90
2019-02-15T02:39:57.856Z,99.90
2019-02-15T02:42:23.970Z,99.90
2019-02-15T02:44:50.156Z,99.90
2019-02-15T02:47:16.256Z,99.90
2019-02-15T02:49:42.382Z,99.90
2019-02-15T02:52:08.500Z,99.90
2019-02-15T02:54:34.661Z,99.90
2019-02-15T02:57:00.928Z,99.90
2019-02-15T02:59:27.154Z,99.90
2019-02-15T03:01:53.340Z,99.90
2019-02-15T03:04:19.416Z,99.90
2019-02-15T03:06:45.557Z,99.90
2019-02-15T03:09:11.774Z,99.90
2019-02-15T03:11:37.906Z,99.90
2019-02-15T03:14:11.615Z,99.90
2019-02-15T03:16:31.994Z,99.90
2019-02-15T03:18:58.104Z,99.90
2019-02-15T03:21:24.295Z,99.90
2019-02-15T03:23:50.423Z,99.90
2019-02-15T03:26:16.515Z,99.90
2019-02-15T03:28:42.781Z,99.90
2019-02-15T03:31:08.997Z,99.90
2019-02-15T03:33:35.195Z,99.90
2019-02-15T03:36:03.192Z,99.90
2019-02-15T03:38:37.289Z,99.90
2019-02-15T03:41:05.118Z,99.90
2019-02-15T03:43:31.310Z,99.90
2019-02-15T03:45:57.634Z,99.90
2019-02-15T03:48:23.739Z,99.90
2019-02-15T03:50:49.820Z,99.90
2019-02-15T03:53:15.968Z,99.90
2019-02-15T03:55:42.161Z,99.90
2019-02-15T03:58:08.379Z,99.90
2019-02-15T04:00:35.039Z,99.90
2019-02-15T04:03:01.336Z,99.90
2019-02-15T04:05:27.975Z,99.90
2019-02-15T04:07:54.051Z,99.90
2019-02-15T04:10:20.162Z,99.90
2019-02-15T04:12:46.278Z,99.90
2019-02-15T04:15:12.378Z,99.90
2019-02-15T04:17:38.513Z,99.90
2019-02-15T04:20:07.140Z,99.90
2019-02-15T04:22:33.249Z,99.90
2019-02-15T04:24:59.364Z,99.90
2019-02-15T04:27:25.516Z,99.90
2019-02-15T04:29:51.601Z,99.90
2019-02-15T04:32:17.737Z,99.90
2019-02-15T04:34:43.969Z,99.90
2019-02-15T04:37:10.199Z,99.90
2019-02-15T04:39:36.369Z,99.90
2019-02-15T04:42:02.624Z,99.90
2019-02-15T04:44:29.039Z,99.90
2019-02-15T04:46:55.181Z,99.90
2019-02-15T04:49:21.311Z,99.90
2019-02-15T04:51:47.737Z,99.90
2019-02-15T04:54:13.914Z,99.90
2019-02-15T04:56:40.088Z,99.90
2019-02-15T04:59:06.271Z,99.90
2019-02-15T05:01:32.512Z,99.90
2019-02-15T05:03:58.692Z,99.90
2019-02-15T05:06:24.819Z,99.90
2019-02-15T05:08:52.867Z,99.90
2019-02-15T05:11:19.141Z,99.90
2019-02-15T05:13:45.295Z,99.90
2019-02-15T05:16:11.380Z,99.90
2019-02-15T05:18:37.479Z,99.90
2019-02-15T05:21:03.600Z,99.90
2019-02-15T05:23:29.690Z,99.90
2019-02-15T05:25:55.814Z,99.90
2019-02-15T05:28:21.938Z,99.90
2019-02-15T05:30:48.276Z,99.90
2019-02-15T05:33:14.393Z,99.90
2019-02-15T05:35:40.544Z,99.90
2019-02-15T05:38:06.726Z,99.90
2019-02-15T05:40:32.875Z,99.90
2019-02-15T05:42:59.047Z,99.90
2019-02-15T05:45:25.196Z,99.90
2019-02-15T05:47:51.374Z,99.90
2019-02-15T05:50:17.451Z,99.90
2019-02-15T05:52:43.585Z,99.90
2019-02-15T05:55:09.660Z,99.90
2019-02-15T05:57:35.747Z,99.90
2019-02-15T06:00:02.076Z,99.90
2019-02-15T06:02:28.197Z,99.90
2019-02-15T06:04:54.317Z,99.90
2019-02-15T06:07:20.460Z,99.90
2019-02-15T06:09:46.556Z,99.90
2019-02-15T06:12:12.690Z,99.90
2019-02-15T06:14:38.789Z,99.90
2019-02-15T06:17:04.894Z,99.90
2019-02-15T06:19:31.128Z,99.90
2019-02-15T06:21:57.236Z,99.90
2019-02-15T06:24:23.474Z,99.90
2019-02-15T06:26:49.703Z,99.90
2019-02-15T06:29:15.937Z,99.90
2019-02-15T06:31:42.065Z,99.90
2019-02-15T06:34:08.298Z,99.90
2019-02-15T06:36:35.402Z,99.90
2019-02-15T06:39:01.496Z,99.90
2019-02-15T06:41:27.585Z,99.90
2019-02-15T06:43:53.730Z,99.90
2019-02-15T06:46:19.937Z,99.90
2019-02-15T06:48:46.006Z,99.90
2019-02-15T06:51:12.128Z,99.90
2019-02-15T06:53:38.310Z,99.90
2019-02-15T06:56:04.438Z,99.90
2019-02-15T06:58:31.797Z,99.90
2019-02-15T07:01:00.033Z,99.90
2019-02-15T07:03:28.086Z,99.90
2019-02-15T07:05:54.763Z,99.90
2019-02-15T07:08:20.867Z,99.90
2019-02-15T07:10:46.966Z,99.90
2019-02-15T07:13:13.056Z,99.90
2019-02-15T07:15:39.142Z,99.90
2019-02-15T07:18:05.224Z,99.90
2019-02-15T07:20:31.338Z,99.90
2019-02-15T07:22:57.420Z,99.90
2019-02-15T07:25:23.557Z,99.90
2019-02-15T07:27:49.670Z,99.90
2019-02-15T07:30:15.853Z,99.90
2019-02-15T07:32:42.056Z,99.90
2019-02-15T07:35:08.383Z,99.90
2019-02-15T07:37:34.707Z,99.90
2019-02-15T07:40:00.925Z,99.90
2019-02-15T07:42:27.150Z,99.90
2019-02-15T07:44:53.227Z,99.90
2019-02-15T07:47:19.391Z,99.90
2019-02-15T07:49:45.559Z,99.90
2019-02-15T07:52:11.685Z,99.90
2019-02-15T07:54:37.815Z,99.90
2019-02-15T07:57:03.994Z,99.90
2019-02-15T07:59:30.595Z,99.90
2019-02-15T08:02:01.929Z,99.90
2019-02-15T08:04:24.837Z,99.90
2019-02-15T08:06:50.959Z,99.90
2019-02-15T08:09:17.113Z,99.90
2019-02-15T08:11:43.321Z,99.90
2019-02-15T08:14:14.743Z,99.90
2019-02-15T08:16:38.840Z,99.90
2019-02-15T08:19:05.189Z,99.90
2019-02-15T08:21:31.351Z,99.90
2019-02-15T08:23:57.425Z,99.90
2019-02-15T08:26:23.499Z,99.90
2019-02-15T08:28:49.599Z,99.90
2019-02-15T08:31:15.773Z,99.90
2019-02-15T08:33:42.004Z,99.90
2019-02-15T08:36:08.198Z,99.90
2019-02-15T08:38:34.321Z,99.90
2019-02-15T08:41:00.423Z,99.90
2019-02-15T08:43:26.525Z,99.90
2019-02-15T08:46:00.540Z,99.90
2019-02-15T08:48:20.825Z,99.90
2019-02-15T08:50:47.007Z,99.90
2019-02-15T08:53:13.157Z,99.90
2019-02-15T08:55:39.417Z,99.90
2019-02-15T08:58:05.609Z,99.90
2019-02-15T09:00:31.691Z,99.90
2019-02-15T09:02:57.907Z,99.90
2019-02-15T09:05:24.053Z,99.90
2019-02-15T09:07:50.295Z,99.90
2019-02-15T09:10:16.407Z,99.90
2019-02-15T09:12:42.651Z,99.90
2019-02-15T09:15:17.438Z,99.90
2019-02-15T09:17:43.603Z,99.90
2019-02-15T09:20:10.710Z,99.90
2019-02-15T09:22:36.835Z,99.90
2019-02-15T09:25:05.077Z,99.90
2019-02-15T09:27:33.153Z,99.90
2019-02-15T09:29:59.301Z,99.90
2019-02-15T09:32:25.379Z,99.90
2019-02-15T09:34:51.542Z,99.90
2019-02-15T09:37:17.699Z,99.90
2019-02-15T09:39:43.794Z,99.90
2019-02-15T09:42:09.925Z,99.90
2019-02-15T09:44:36.169Z,99.90
2019-02-15T09:47:02.464Z,99.90
2019-02-15T09:49:28.594Z,99.90
2019-02-15T09:51:55.560Z,99.90
2019-02-15T09:54:21.791Z,99.90
2019-02-15T09:56:47.923Z,99.90
2019-02-15T09:59:14.015Z,99.90
2019-02-15T10:01:40.102Z,99.90
2019-02-15T10:04:06.239Z,99.90
2019-02-15T10:06:32.474Z,99.90
2019-02-15T10:08:58.650Z,99.90
2019-02-15T10:11:24.922Z,99.90
2019-02-15T10:13:51.038Z,99.90
2019-02-15T10:16:17.272Z,99.90
2019-02-15T10:18:43.374Z,99.90
2019-02-15T10:21:09.500Z,99.90
2019-02-15T10:23:35.661Z,99.90
2019-02-15T10:26:01.838Z,99.90
2019-02-15T10:28:28.038Z,99.90
2019-02-15T10:30:54.430Z,99.90
2019-02-15T10:33:20.564Z,99.90
2019-02-15T10:35:46.672Z,99.90
2019-02-15T10:38:12.809Z,99.90
2019-02-15T10:40:38.936Z,99.90
2019-02-15T10:43:04.996Z,99.90
2019-02-15T10:45:31.138Z,99.90
2019-02-15T10:47:57.278Z,99.90
2019-02-15T10:50:23.472Z,99.90
2019-02-15T10:52:49.556Z,99.90
2019-02-15T10:55:15.752Z,99.90
2019-02-15T10:57:41.848Z,99.90
2019-02-15T11:00:12.959Z,99.90
2019-02-15T11:02:39.052Z,99.90
2019-02-15T11:05:05.666Z,99.90
2019-02-15T11:07:31.860Z,99.90
2019-02-15T11:09:57.966Z,99.90
2019-02-15T11:12:24.131Z,99.90
2019-02-15T11:14:50.204Z,99.90
2019-02-15T11:17:16.369Z,99.90
2019-02-15T11:19:42.607Z,99.90
2019-02-15T11:22:08.790Z,99.90
2019-02-15T11:24:34.928Z,99.90
2019-02-15T11:27:01.144Z,99.90
2019-02-15T11:29:27.228Z,99.90
2019-02-15T11:31:53.338Z,99.90
2019-02-15T11:34:19.429Z,99.90
2019-02-15T11:36:45.554Z,99.90
2019-02-15T11:39:11.799Z,99.90
2019-02-15T11:41:37.996Z,99.90
2019-02-15T11:44:04.220Z,99.90
2019-02-15T11:46:30.528Z,99.90
2019-02-15T11:48:56.748Z,99.90
2019-02-15T11:51:22.826Z,99.90
2019-02-15T11:53:48.986Z,99.90
2019-02-15T11:56:15.201Z,99.90
2019-02-15T11:58:41.418Z,99.90
2019-02-15T12:01:07.667Z,99.90
2019-02-15T12:03:33.896Z,99.90
2019-02-15T12:06:00.201Z,99.90
2019-02-15T12:08:26.327Z,99.90
2019-02-15T12:10:52.498Z,99.90
2019-02-15T12:13:18.602Z,99.90
2019-02-15T12:15:44.746Z,99.90
2019-02-15T12:18:10.887Z,99.90
2019-02-15T12:20:37.130Z,99.90
2019-02-15T12:23:03.245Z,99.90
2019-02-15T12:25:29.363Z,99.90
2019-02-15T12:27:55.563Z,99.90
2019-02-15T12:30:21.853Z,99.90
2019-02-15T12:32:48.109Z,99.90
2019-02-15T12:35:14.281Z,99.00
2019-02-15T12:37:40.498Z,99.10
2019-02-15T12:40:08.445Z,98.20
2019-02-15T12:42:34.630Z,98.00
2019-02-15T12:45:00.709Z,98.00
2019-02-15T12:47:26.892Z,97.10
2019-02-15T12:49:53.020Z,97.30
2019-02-15T12:52:19.244Z,96.60
2019-02-15T12:54:45.416Z,96.50
2019-02-15T12:57:11.529Z,96.00
2019-02-15T12:59:37.627Z,96.20
2019-02-15T13:02:03.698Z,96.30
2019-02-15T13:04:29.848Z,95.50
2019-02-15T13:06:56.113Z,95.40
2019-02-15T13:09:22.304Z,94.10
2019-02-15T13:11:48.394Z,94.70
2019-02-15T13:14:14.491Z,94.60
2019-02-15T13:16:40.638Z,94.80
2019-02-15T13:19:06.734Z,95.20
2019-02-15T13:21:32.808Z,94.60
2019-02-15T13:23:59.084Z,93.90
2019-02-15T13:26:25.344Z,94.10
2019-02-15T13:28:51.587Z,93.00
2019-02-15T13:31:17.697Z,92.90
2019-02-15T13:33:43.784Z,92.60
2019-02-15T13:36:09.883Z,92.50
2019-02-15T13:38:36.011Z,92.30
2019-02-15T13:41:02.301Z,92.30
2019-02-15T13:43:28.426Z,91.70
2019-02-15T13:45:54.658Z,92.50
2019-02-15T13:48:21.071Z,92.20
2019-02-15T13:50:47.232Z,91.40
2019-02-15T13:53:13.409Z,90.90
2019-02-15T13:55:39.535Z,92.10
2019-02-15T13:58:05.773Z,92.80
2019-02-15T14:00:32.059Z,93.00
2019-02-15T14:02:58.217Z,92.50
2019-02-15T14:05:24.433Z,92.20
2019-02-15T14:07:50.543Z,90.80
2019-02-15T14:10:16.665Z,90.90
2019-02-15T14:12:42.844Z,90.90
2019-02-15T14:15:10.148Z,89.30
2019-02-15T14:17:44.443Z,85.80
2019-02-15T14:20:07.685Z,83.40
2019-02-15T14:22:33.813Z,80.30
2019-02-15T14:25:00.281Z,74.60
2019-02-15T14:27:26.455Z,70.80
2019-02-15T14:29:52.687Z,68.90
2019-02-15T14:32:18.885Z,66.60
2019-02-15T14:34:45.017Z,64.20
2019-02-15T14:37:11.183Z,63.20
2019-02-15T14:39:37.306Z,61.90
2019-02-15T14:42:03.639Z,60.90
2019-02-15T14:44:29.827Z,59.30
2019-02-15T14:46:55.930Z,58.90
2019-02-15T14:49:22.059Z,57.00
2019-02-15T14:51:48.292Z,56.60
2019-02-15T14:54:14.381Z,56.10
2019-02-15T14:56:40.509Z,56.40
2019-02-15T14:59:06.656Z,56.10
2019-02-15T15:01:52.661Z,56.40
2019-02-15T15:04:18.850Z,57.00
2019-02-15T15:06:44.961Z,55.20
2019-02-15T15:09:11.088Z,56.10
2019-02-15T15:11:37.332Z,56.30
2019-02-15T15:14:03.528Z,56.80
2019-02-15T15:16:31.603Z,57.60
2019-02-15T15:18:57.716Z,56.70
2019-02-15T15:21:24.046Z,56.80
2019-02-15T15:23:50.207Z,58.60
2019-02-15T15:26:16.433Z,57.70
2019-02-15T15:28:42.641Z,58.70
2019-02-15T15:31:08.788Z,60.80
2019-02-15T15:33:35.039Z,60.20
2019-02-15T15:36:01.458Z,61.80
2019-02-15T15:38:27.595Z,63.70
2019-02-15T15:40:53.691Z,64.70
2019-02-15T15:43:19.781Z,66.00
2019-02-15T15:45:45.885Z,70.40
2019-02-15T15:48:11.990Z,72.20
2019-02-15T15:50:40.133Z,75.00
2019-02-15T15:53:07.797Z,76.80
2019-02-15T15:55:34.748Z,79.30
2019-02-15T15:58:00.912Z,77.40
2019-02-15T16:00:27.010Z,78.70
2019-02-15T16:02:53.168Z,80.80
2019-02-15T16:05:19.292Z,82.30
2019-02-15T16:07:45.480Z,83.60
2019-02-15T16:10:12.890Z,85.60
2019-02-15T16:12:39.065Z,87.50
2019-02-15T16:15:08.236Z,88.40
2019-02-15T16:20:16.108Z,91.30
2019-02-15T16:22:42.338Z,91.90
2019-02-15T16:25:09.324Z,92.70
2019-02-15T16:27:35.446Z,94.10
2019-02-15T16:30:01.970Z,95.20
2019-02-15T16:32:28.168Z,96.60
2019-02-15T16:34:54.263Z,98.50
2019-02-15T16:37:20.342Z,99.90
2019-02-15T16:39:46.473Z,99.90
2019-02-15T16:42:12.652Z,99.90
2019-02-15T16:44:38.866Z,99.90
2019-02-15T16:47:05.024Z,99.90
2019-02-15T16:49:31.120Z,99.90
2019-02-15T16:51:57.308Z,99.90
2019-02-15T16:54:23.540Z,99.90
2019-02-15T16:56:49.620Z,99.90
2019-02-15T16:59:15.806Z,99.90
2019-02-15T17:01:41.979Z,99.90
2019-02-15T17:04:08.059Z,99.90
2019-02-15T17:06:34.199Z,99.90
2019-02-15T17:09:00.379Z,99.90
2019-02-15T17:11:26.647Z,99.90
2019-02-15T17:13:52.807Z,99.90
2019-02-15T17:16:18.961Z,99.90
2019-02-15T17:18:51.417Z,99.90
2019-02-15T17:21:13.177Z,99.90
2019-02-15T17:23:39.275Z,99.90
2019-02-15T17:26:05.425Z,99.90
2019-02-15T17:28:31.504Z,99.90
2019-02-15T17:30:57.583Z,99.90
2019-02-15T17:33:23.695Z,99.90
2019-02-15T17:35:50.073Z,99.90
2019-02-15T17:38:16.265Z,99.90
2019-02-15T17:40:42.377Z,99.90
2019-02-15T17:43:08.603Z,99.90
2019-02-15T17:45:34.735Z,99.90
2019-02-15T17:48:00.853Z,99.90
2019-02-15T17:50:26.940Z,99.90
2019-02-15T17:52:53.019Z,99.90
2019-02-15T17:55:19.142Z,99.90
2019-02-15T17:57:45.388Z,99.90
2019-02-15T18:00:13.231Z,99.90
2019-02-15T18:02:39.457Z,99.90
2019-02-15T18:05:09.405Z,99.90
2019-02-15T18:07:35.533Z,99.90
2019-02-15T18:10:01.742Z,99.90
2019-02-15T18:12:27.822Z,99.90
2019-02-15T18:14:53.974Z,99.90
2019-02-15T18:17:20.171Z,99.90
2019-02-15T18:19:47.496Z,99.90
2019-02-15T18:22:13.857Z,99.90
2019-02-15T18:24:40.114Z,99.90
2019-02-15T18:27:06.243Z,99.90
2019-02-15T18:29:32.575Z,99.90
2019-02-15T18:31:58.742Z,99.90
2019-02-15T18:34:24.965Z,99.90
2019-02-15T18:36:51.141Z,99.90
2019-02-15T18:39:17.258Z,99.90
2019-02-15T18:41:43.505Z,99.90
2019-02-15T18:44:09.599Z,99.90
2019-02-15T18:46:35.733Z,99.90
2019-02-15T18:49:02.747Z,99.90
2019-02-15T18:51:28.974Z,99.90
2019-02-15T18:53:55.108Z,99.90
2019-02-15T18:56:21.321Z,99.90
2019-02-15T18:58:47.423Z,99.90
2019-02-15T19:01:13.743Z,99.90
2019-02-15T19:03:39.968Z,99.90
2019-02-15T19:06:06.171Z,99.90
2019-02-15T19:08:32.432Z,99.90
2019-02-15T19:10:58.635Z,99.90
2019-02-15T19:13:24.743Z,99.90
2019-02-15T19:15:51.052Z,99.90
2019-02-15T19:18:17.235Z,99.90
2019-02-15T19:20:43.470Z,99.90
2019-02-15T19:23:09.656Z,99.90
2019-02-15T19:25:35.850Z,99.90
2019-02-15T19:28:02.143Z,99.90
2019-02-15T19:30:31.003Z,99.90
2019-02-15T19:32:57.578Z,99.90
2019-02-15T19:35:23.800Z,99.90
2019-02-15T19:37:49.895Z,99.90
2019-02-15T19:40:18.038Z,99.90
2019-02-15T19:42:45.392Z,99.90
2019-02-15T19:45:11.929Z,99.90
2019-02-15T19:47:38.155Z,99.90
2019-02-15T19:50:12.990Z,99.90
2019-02-15T19:52:39.489Z,99.90
2019-02-15T19:55:07.470Z,99.90
2019-02-15T19:57:33.696Z,99.90
2019-02-15T19:59:59.809Z,99.90
2019-02-15T20:02:25.932Z,99.90
2019-02-15T20:04:52.127Z,99.90
2019-02-15T20:07:18.385Z,99.90
2019-02-15T20:09:44.474Z,99.90
2019-02-15T20:12:10.636Z,99.90
2019-02-15T20:14:36.718Z,99.90
2019-02-15T20:17:02.862Z,99.90
2019-02-15T20:19:29.116Z,99.90
2019-02-15T20:21:55.302Z,99.90
2019-02-15T20:24:21.470Z,99.90
2019-02-15T20:26:47.667Z,99.90
2019-02-15T20:29:13.774Z,99.90
2019-02-15T20:31:39.902Z,99.90
2019-02-15T20:34:06.004Z,99.90
2019-02-15T20:36:32.129Z,99.90
2019-02-15T20:38:58.733Z,99.90
2019-02-15T20:41:25.294Z,99.90
2019-02-15T20:43:51.463Z,99.90
2019-02-15T20:46:17.638Z,99.90
2019-02-15T20:48:43.726Z,99.90
2019-02-15T20:51:09.900Z,99.90
2019-02-15T20:53:36.123Z,99.90
2019-02-15T20:56:02.538Z,99.90
2019-02-15T20:58:28.834Z,99.90
2019-02-15T21:00:56.290Z,99.90
2019-02-15T21:03:22.649Z,99.90
2019-02-15T21:05:48.951Z,99.90
2019-02-15T21:08:15.220Z,99.90
2019-02-15T21:10:41.624Z,99.90
2019-02-15T21:13:07.839Z,99.90
2019-02-15T21:15:34.026Z,99.90
2019-02-15T21:18:00.204Z,99.90
2019-02-15T21:20:26.391Z,99.90
2019-02-15T21:22:52.755Z,99.90
2019-02-15T21:25:18.918Z,99.90
2019-02-15T21:27:45.143Z,99.90
2019-02-15T21:30:17.253Z,99.90
2019-02-15T21:32:43.435Z,99.90
2019-02-15T21:35:09.792Z,99.90
2019-02-15T21:37:36.646Z,99.90
2019-02-15T21:40:06.281Z,99.90
2019-02-15T21:42:32.491Z,99.90
2019-02-15T21:44:59.225Z,99.90
2019-02-15T21:47:25.447Z,99.90
2019-02-15T21:49:51.657Z,99.90
2019-02-15T21:52:17.785Z,99.90
2019-02-15T21:54:44.487Z,99.90
2019-02-15T21:57:10.655Z,99.90
2019-02-15T21:59:36.860Z,99.90
2019-02-15T22:02:03.001Z,99.90
2019-02-15T22:04:29.202Z,99.90
2019-02-15T22:06:55.289Z,99.90
2019-02-15T22:09:21.394Z,99.90
2019-02-15T22:11:47.536Z,99.90
2019-02-15T22:14:13.703Z,99.90
2019-02-15T22:16:39.840Z,99.90
2019-02-15T22:19:06.014Z,99.90
2019-02-15T22:21:32.318Z,99.90
2019-02-15T22:23:58.486Z,99.90
2019-02-15T22:26:24.625Z,99.90
2019-02-15T22:28:50.748Z,99.90
2019-02-15T22:31:16.891Z,99.90
2019-02-15T22:33:43.094Z,99.90
2019-02-15T22:36:09.337Z,99.90
2019-02-15T22:38:35.456Z,99.90
2019-02-15T22:41:10.438Z,99.90
2019-02-15T22:43:36.546Z,99.90
2019-02-15T22:46:02.688Z,99.90
2019-02-15T22:48:28.895Z,99.90
2019-02-15T22:50:57.042Z,99.90
2019-02-15T22:53:23.219Z,99.90
2019-02-15T22:55:49.339Z,99.90
2019-02-15T22:58:15.459Z,99.90
2019-02-15T23:00:57.365Z,99.90
2019-02-15T23:03:25.382Z,99.90
2019-02-15T23:05:51.697Z,99.90
2019-02-15T23:08:17.886Z,99.90
2019-02-15T23:10:44.021Z,99.90
2019-02-15T23:13:10.225Z,99.90
2019-02-15T23:15:36.320Z,99.90
2019-02-15T23:18:02.580Z,99.90
2019-02-15T23:20:28.755Z,99.90
2019-02-15T23:22:54.874Z,99.90
2019-02-15T23:25:21.026Z,99.90
2019-02-15T23:27:47.118Z,99.90
2019-02-15T23:30:13.236Z,99.90
2019-02-15T23:32:39.402Z,99.90
2019-02-15T23:35:06.076Z,99.90
2019-02-15T23:37:32.324Z,99.90
2019-02-15T23:39:58.407Z,99.90
2019-02-15T23:42:24.602Z,99.90
2019-02-15T23:44:50.760Z,99.90
2019-02-15T23:47:16.885Z,99.90
2019-02-15T23:49:42.990Z,99.90
2019-02-15T23:52:09.062Z,99.90
2019-02-15T23:54:35.326Z,99.90
2019-02-15T23:57:01.534Z,99.90
2019-02-15T23:59:27.634Z,99.90
